Time;durP1;ratioP1;P1;durP2;ratioP2;P2;SDS_P1;SDS_P2;PMS_P1;PMS_P2;Temp;Humidity;BMP_temperature;BMP_pressure;BME280_temperature;BME280_humidity;BME280_pressure;Samples;Min_cycle;Max_cycle;Signal;HPM_P1;HPM_P2
2022/09/09 00:00:42;;;;;;;10.55;9.65;;;;;;;14.57;62.53;101252.63;462191;114;922748;-73
2022/09/09 00:01:49;;;;;;;10.85;9.92;;;;;;;14.56;62.56;101256.44;462006;114;922771;-73
2022/09/09 00:03:12;;;;;;;10.68;9.68;;;;;;;14.56;62.58;101258.34;462009;114;922561;-72
2022/09/09 00:04:22;;;;;;;10.42;9.51;;;;;;;14.53;62.60;101256.90;461793;114;922857;-73
2022/09/09 00:05:44;;;;;;;11.64;10.67;;;;;;;14.52;62.71;101257.95;454800;114;922538;-73
2022/09/09 00:07:03;;;;;;;11.27;10.37;;;;;;;14.52;62.76;101254.37;461986;114;922556;-72
2022/09/09 00:08:10;;;;;;;10.34;9.41;;;;;;;14.54;62.82;101257.74;461887;114;922867;-72
2022/09/09 00:09:19;;;;;;;10.43;9.52;;;;;;;14.55;62.88;101254.75;461656;114;923127;-72
2022/09/09 00:10:25;;;;;;;11.65;10.71;;;;;;;14.56;62.95;101247.36;462014;114;923096;-72
2022/09/09 00:11:36;;;;;;;10.93;9.61;;;;;;;14.59;63.02;101249.67;461950;114;922625;-72
2022/09/09 00:12:41;;;;;;;;;;;;;;;14.61;63.01;101248.36;465873;114;922029;-72
2022/09/09 00:13:50;;;;;;;10.72;9.69;;;;;;;14.61;62.90;101244.78;462021;114;922715;-72
2022/09/09 00:15:15;;;;;;;10.67;9.84;;;;;;;14.59;62.91;101249.67;461963;114;922416;-73
2022/09/09 00:16:23;;;;;;;11.17;9.98;;;;;;;14.59;63.10;101250.52;446003;119;923279;-72
2022/09/09 00:17:40;;;;;;;11.11;10.17;;;;;;;14.69;63.18;101244.50;477347;110;946880;-73
2022/09/09 00:19:11;;;;;;;10.93;9.94;;;;;;;14.57;63.06;101247.14;464619;114;922870;-73
2022/09/09 00:20:36;;;;;;;10.97;10.14;;;;;;;14.59;63.13;101252.41;457270;116;922574;-74
2022/09/09 00:21:45;;;;;;;10.62;9.72;;;;;;;14.60;63.17;101245.87;456004;116;922850;-74
2022/09/09 00:22:59;;;;;;;10.56;9.64;;;;;;;14.58;63.12;101254.31;456225;116;922482;-73
2022/09/09 00:24:13;;;;;;;10.79;9.96;;;;;;;14.55;63.01;101252.00;457227;116;922489;-73
2022/09/09 00:25:21;;;;;;;11.10;10.24;;;;;;;14.54;63.13;101249.51;456959;116;922515;-74
2022/09/09 00:26:34;;;;;;;10.94;9.94;;;;;;;14.53;63.08;101248.66;456497;116;922622;-73
2022/09/09 00:27:43;;;;;;;10.81;9.82;;;;;;;14.51;63.11;101256.27;456966;116;922896;-73
2022/09/09 00:29:06;;;;;;;10.32;9.54;;;;;;;14.50;63.23;101251.84;457264;116;922829;-73
2022/09/09 00:30:19;;;;;;;10.82;9.88;;;;;;;14.50;63.21;101254.59;457564;116;922526;-73
2022/09/09 00:31:25;;;;;;;10.76;9.81;;;;;;;14.50;63.16;101251.03;457702;114;922999;-71
2022/09/09 00:32:30;;;;;;;11.84;10.93;;;;;;;14.49;63.20;101241.95;457159;116;922503;-72
2022/09/09 00:33:34;;;;;;;11.92;10.98;;;;;;;14.49;63.13;101249.34;457153;114;922905;-71
2022/09/09 00:34:41;;;;;;;12.14;11.01;;;;;;;14.47;63.11;101249.56;457383;116;922887;-73
2022/09/09 00:35:53;;;;;;;10.79;10.04;;;;;;;14.46;63.07;101256.11;457231;116;922459;-72
2022/09/09 00:36:56;;;;;;;11.01;9.96;;;;;;;14.46;63.07;101247.88;457268;116;922962;-72
2022/09/09 00:38:14;;;;;;;10.86;9.98;;;;;;;14.44;63.04;101250.02;457458;115;922567;-72
2022/09/09 00:39:36;;;;;;;11.33;10.43;;;;;;;14.44;62.99;101254.67;457271;116;923024;-72
2022/09/09 00:40:52;;;;;;;11.36;10.42;;;;;;;14.42;62.97;101252.14;452121;117;922625;-72
2022/09/09 00:42:17;;;;;;;11.32;10.07;;;;;;;14.41;62.92;101250.45;453266;116;922917;-72
2022/09/09 00:43:32;;;;;;;11.02;10.13;;;;;;;14.40;62.96;101253.41;457289;116;922583;-72
2022/09/09 00:44:39;;;;;;;10.99;9.87;;;;;;;14.35;63.02;101261.44;457188;116;922781;-72
2022/09/09 00:45:54;;;;;;;11.18;10.29;;;;;;;14.29;62.89;101254.94;457273;116;923493;-72
2022/09/09 00:47:33;;;;;;;10.70;9.91;;;;;;;14.23;62.97;101257.73;456266;116;922555;-72
2022/09/09 00:48:42;;;;;;;10.99;10.04;;;;;;;14.17;62.88;101259.45;457222;116;923048;-72
2022/09/09 00:50:12;;;;;;;10.92;10.02;;;;;;;14.08;62.85;101252.57;447629;118;922804;-73
2022/09/09 00:51:27;;;;;;;10.14;9.34;;;;;;;14.03;63.07;101258.72;457230;116;922722;-73
2022/09/09 00:53:01;;;;;;;11.03;9.73;;;;;;;14.01;63.29;101260.84;457167;116;922514;-73
2022/09/09 00:54:25;;;;;;;10.53;8.91;;;;;;;14.01;63.41;101254.51;457177;116;923054;-73
2022/09/09 00:55:41;;;;;;;10.21;8.86;;;;;;;14.00;63.52;101259.15;457148;116;922470;-73
2022/09/09 00:56:57;;;;;;;11.59;9.57;;;;;;;14.01;63.52;101265.48;457153;116;923212;-73
2022/09/09 00:58:00;;;;;;;10.07;8.99;;;;;;;14.01;63.58;101259.99;457175;116;922629;-73
2022/09/09 00:59:12;;;;;;;10.51;9.59;;;;;;;14.01;63.63;101255.35;457275;115;923344;-73
2022/09/09 01:00:20;;;;;;;10.37;9.37;;;;;;;14.03;63.65;101260.63;457205;116;922995;-74
2022/09/09 01:01:23;;;;;;;10.13;9.27;;;;;;;14.05;63.79;101253.87;457204;116;923009;-73
2022/09/09 01:02:41;;;;;;;10.46;9.57;;;;;;;14.07;63.69;101256.38;457328;115;923526;-70
2022/09/09 01:03:50;;;;;;;9.43;8.61;;;;;;;14.08;63.66;101255.31;456461;116;923204;-74
2022/09/09 01:04:54;;;;;;;9.41;8.62;;;;;;;14.10;63.71;101259.53;457164;116;922587;-73
2022/09/09 01:06:22;;;;;;;9.16;8.35;;;;;;;14.10;63.67;101256.79;457274;116;922477;-71
2022/09/09 01:07:25;;;;;;;11.06;8.83;;;;;;;14.12;63.65;101262.03;457139;116;922809;-72
2022/09/09 01:08:40;;;;;;;9.60;8.69;;;;;;;14.12;63.67;101259.28;457335;116;922930;-72
2022/09/09 01:09:47;;;;;;;14.02;9.13;;;;;;;14.14;63.56;101265.41;457306;116;922593;-72
2022/09/09 01:10:54;;;;;;;18.76;9.13;;;;;;;14.13;63.52;101264.56;456431;116;922563;-73
2022/09/09 01:12:17;;;;;;;9.66;8.36;;;;;;;14.11;63.45;101266.67;457167;115;923010;-72
2022/09/09 01:13:30;;;;;;;9.79;8.53;;;;;;;14.09;63.42;101274.30;457074;114;922999;-73
2022/09/09 01:14:38;;;;;;;9.61;8.68;;;;;;;14.07;63.40;101272.83;447828;118;923093;-73
2022/09/09 01:15:44;;;;;;;8.96;8.03;;;;;;;14.04;63.39;101273.28;447805;116;923376;-73
2022/09/09 01:16:48;;;;;;;12.99;8.34;;;;;;;14.02;63.40;101273.48;446322;118;922737;-74
2022/09/09 01:18:07;;;;;;;11.44;7.78;;;;;;;14.02;63.46;101275.39;446786;116;922805;-72
2022/09/09 01:19:16;;;;;;;9.22;8.45;;;;;;;14.02;63.47;101275.39;454916;116;922795;-72
2022/09/09 01:20:25;;;;;;;9.71;8.56;;;;;;;14.04;63.52;101270.53;455549;116;923142;-73
2022/09/09 01:21:50;;;;;;;9.24;8.39;;;;;;;14.05;63.60;101277.70;455419;116;923052;-72
2022/09/09 01:22:59;;;;;;;9.41;8.58;;;;;;;14.05;63.55;101280.45;455536;116;922896;-73
2022/09/09 01:24:22;;;;;;;9.31;8.33;;;;;;;14.05;63.53;101278.55;455317;116;922873;-73
2022/09/09 01:25:47;;;;;;;13.21;9.07;;;;;;;14.03;63.39;101283.41;434228;121;930802;-73
2022/09/09 01:26:58;;;;;;;12.91;9.43;;;;;;;13.98;63.41;101276.90;435672;116;922758;-73
2022/09/09 01:28:05;;;;;;;12.86;9.28;;;;;;;13.94;63.43;101278.41;455511;116;922622;-72
2022/09/09 01:29:11;;;;;;;14.57;9.12;;;;;;;13.90;63.56;101275.25;455350;116;922908;-73
2022/09/09 01:30:18;;;;;;;19.38;9.06;;;;;;;13.89;63.61;101283.71;449250;116;923049;-73
2022/09/09 01:31:34;;;;;;;16.17;9.36;;;;;;;13.86;63.65;101290.46;453128;114;922581;-72
2022/09/09 01:32:40;;;;;;;14.37;10.21;;;;;;;13.85;63.73;101285.19;465159;114;922611;-73
2022/09/09 01:33:44;;;;;;;18.01;10.36;;;;;;;13.84;63.87;101286.27;463092;114;922583;-72
2022/09/09 01:34:47;;;;;;;15.03;8.65;;;;;;;13.85;63.93;101287.93;446336;118;922948;-73
2022/09/09 01:35:54;;;;;;;14.48;9.34;;;;;;;13.85;64.04;101294.25;446780;116;922694;-73
2022/09/09 01:37:04;;;;;;;13.09;8.84;;;;;;;13.86;64.00;101292.36;457064;116;922498;-72
2022/09/09 01:38:08;;;;;;;16.18;9.95;;;;;;;13.86;64.11;101295.94;457143;116;922568;-72
2022/09/09 01:39:12;;;;;;;13.41;9.55;;;;;;;13.86;64.05;101295.94;446201;118;922815;-72
2022/09/09 01:40:17;;;;;;;21.12;9.58;;;;;;;13.85;64.05;101294.25;446921;116;922684;-72
2022/09/09 01:41:20;;;;;;;15.22;9.61;;;;;;;13.84;63.97;101297.23;457240;116;923008;-72
2022/09/09 01:42:28;;;;;;;14.33;9.37;;;;;;;13.83;64.02;101292.81;456012;116;923013;-72
2022/09/09 01:43:31;;;;;;;15.78;10.57;;;;;;;13.80;64.04;101299.55;457243;116;922860;-73
2022/09/09 01:44:35;;;;;;;16.34;8.87;;;;;;;13.80;64.12;101294.08;457278;116;922996;-73
2022/09/09 01:45:40;;;;;;;12.19;9.61;;;;;;;13.78;64.17;101294.28;457127;116;922550;-73
2022/09/09 01:46:43;;;;;;;12.86;9.33;;;;;;;13.79;64.26;101292.38;457087;116;930304;-73
2022/09/09 01:47:49;;;;;;;13.24;8.96;;;;;;;13.79;64.28;101293.23;456698;116;922586;-73
2022/09/09 01:48:56;;;;;;;13.18;7.86;;;;;;;13.82;64.31;101288.38;456815;116;922981;-73
2022/09/09 01:50:01;;;;;;;14.42;8.71;;;;;;;13.80;64.32;101280.37;457204;116;922879;-73
2022/09/09 01:51:05;;;;;;;11.61;8.84;;;;;;;13.82;64.34;101282.90;457101;116;922537;-73
2022/09/09 01:52:08;;;;;;;9.34;8.02;;;;;;;13.82;64.31;101288.38;457241;116;922432;-73
2022/09/09 01:53:15;;;;;;;11.14;8.22;;;;;;;13.82;64.31;101288.38;457132;116;923079;-73
2022/09/09 01:54:20;;;;;;;9.94;8.74;;;;;;;13.82;64.30;101281.00;457153;116;922616;-73
2022/09/09 01:55:33;;;;;;;9.57;8.33;;;;;;;13.80;64.42;101285.84;457118;116;922785;-73
2022/09/09 01:56:56;;;;;;;15.18;8.22;;;;;;;13.79;64.34;101284.16;457122;116;922507;-73
2022/09/09 01:58:33;;;;;;;14.34;8.10;;;;;;;13.79;64.33;101281.42;457121;116;922820;-73
2022/09/09 01:59:43;;;;;;;8.88;7.78;;;;;;;13.77;64.33;101287.14;445682;118;923249;-73
2022/09/09 02:01:08;;;;;;;11.45;8.79;;;;;;;13.74;64.37;101287.56;447232;118;922560;-73
2022/09/09 02:02:15;;;;;;;10.73;8.63;;;;;;;13.73;64.46;101291.36;447956;118;922575;-73
2022/09/09 02:03:33;;;;;;;13.23;8.49;;;;;;;13.71;64.45;101292.66;456566;116;922993;-73
2022/09/09 02:04:44;;;;;;;10.05;7.63;;;;;;;13.69;64.34;101294.76;456162;116;923010;-73
2022/09/09 02:05:56;;;;;;;10.37;8.49;;;;;;;13.64;64.24;101294.58;456861;116;923039;-73
2022/09/09 02:07:00;;;;;;;9.99;8.53;;;;;;;13.60;64.22;101298.81;457098;116;923079;-73
2022/09/09 02:08:10;;;;;;;11.89;8.18;;;;;;;13.56;64.26;101301.13;457213;116;922771;-73
2022/09/09 02:09:21;;;;;;;10.08;8.11;;;;;;;13.55;64.34;101310.43;447003;118;922541;-73
2022/09/09 02:10:30;;;;;;;10.92;7.83;;;;;;;13.54;64.38;101310.64;448515;118;922995;-73
2022/09/09 02:11:36;;;;;;;12.41;8.36;;;;;;;13.53;64.41;101311.69;456594;116;923063;-73
2022/09/09 02:12:48;;;;;;;9.06;7.84;;;;;;;13.52;64.44;101305.36;456057;116;923055;-73
2022/09/09 02:13:54;;;;;;;9.60;7.75;;;;;;;13.51;64.44;101309.16;457128;116;922549;-73
2022/09/09 02:15:01;;;;;;;8.53;7.68;;;;;;;13.50;64.47;101310.24;457146;116;922534;-73
2022/09/09 02:16:18;;;;;;;8.56;7.08;;;;;;;13.50;64.56;101306.66;456891;116;922817;-73
2022/09/09 02:17:32;;;;;;;10.11;6.91;;;;;;;13.61;64.54;101303.24;488158;107;922451;-73
2022/09/09 02:18:47;;;;;;;7.77;6.23;;;;;;;13.49;64.51;101308.55;474666;111;923079;-73
2022/09/09 02:19:53;;;;;;;7.04;5.43;;;;;;;13.48;64.51;101308.76;466775;113;922778;-73
2022/09/09 02:20:59;;;;;;;6.40;5.31;;;;;;;13.47;64.51;101307.92;466525;113;923064;-73
2022/09/09 02:22:03;;;;;;;7.46;5.16;;;;;;;13.46;64.62;101308.97;466891;113;922494;-73
2022/09/09 02:23:09;;;;;;;5.87;5.35;;;;;;;13.46;64.54;101305.38;466939;113;922930;-74
2022/09/09 02:24:15;;;;;;;7.58;5.54;;;;;;;13.45;64.51;101304.57;466766;111;922683;-73
2022/09/09 02:25:24;;;;;;;5.83;5.27;;;;;;;13.45;64.48;101303.73;466506;113;923082;-73
2022/09/09 02:26:28;;;;;;;7.53;5.53;;;;;;;13.44;64.46;101307.52;461334;115;922604;-73
2022/09/09 02:27:33;;;;;;;5.64;5.07;;;;;;;13.43;64.47;101317.63;461840;113;922983;-73
2022/09/09 02:28:38;;;;;;;6.12;5.44;;;;;;;13.41;64.35;101308.78;466977;113;922475;-73
2022/09/09 02:29:42;;;;;;;6.07;4.88;;;;;;;13.40;64.35;101312.56;466205;113;923178;-73
2022/09/09 02:30:48;;;;;;;5.04;4.53;;;;;;;13.38;64.31;101314.70;454934;115;930657;-71
2022/09/09 02:31:55;;;;;;;5.55;5.11;;;;;;;13.36;64.21;101317.64;459859;115;922589;-74
2022/09/09 02:33:02;;;;;;;6.38;5.05;;;;;;;13.36;64.22;101314.06;458680;115;922557;-71
2022/09/09 02:34:12;;;;;;;6.02;5.44;;;;;;;13.34;64.21;101318.94;467348;111;922842;-74
2022/09/09 02:35:20;;;;;;;5.55;4.97;;;;;;;13.34;64.19;101324.41;475816;111;922551;-73
2022/09/09 02:36:26;;;;;;;5.93;5.32;;;;;;;13.33;64.23;101322.72;475799;111;922488;-73
2022/09/09 02:37:33;;;;;;;5.33;4.88;;;;;;;13.33;64.18;101326.31;475818;111;922529;-73
2022/09/09 02:38:39;;;;;;;5.56;4.86;;;;;;;13.32;64.22;101321.87;475817;111;922888;-73
2022/09/09 02:39:44;;;;;;;6.41;5.26;;;;;;;13.32;64.18;101331.98;475327;111;922976;-73
2022/09/09 02:40:49;;;;;;;5.27;4.78;;;;;;;13.30;64.17;101332.20;464529;114;923223;-73
2022/09/09 02:41:52;;;;;;;5.44;5.01;;;;;;;13.30;64.13;101328.61;465011;111;922536;-71
2022/09/09 02:42:57;;;;;;;5.28;4.82;;;;;;;13.29;64.07;101321.45;474803;111;922581;-74
2022/09/09 02:44:01;;;;;;;6.98;5.69;;;;;;;13.27;64.05;101329.91;475907;111;922517;-71
2022/09/09 02:45:05;;;;;;;5.94;5.33;;;;;;;13.27;64.02;101329.05;475984;111;923043;-72
2022/09/09 02:46:32;;;;;;;5.61;5.11;;;;;;;13.26;64.00;101321.89;475792;111;922465;-73
2022/09/09 02:47:38;;;;;;;7.53;5.09;;;;;;;13.24;63.97;101330.31;475776;111;922637;-72
2022/09/09 02:49:10;;;;;;;6.17;5.68;;;;;;;13.22;63.95;101323.38;475356;111;923045;-72
2022/09/09 02:50:36;;;;;;;5.96;5.17;;;;;;;13.19;63.99;101327.38;475816;111;923040;-72
2022/09/09 02:52:05;;;;;;;5.75;5.26;;;;;;;13.15;64.10;101319.80;475562;111;922584;-73
2022/09/09 02:53:19;;;;;;;6.22;5.73;;;;;;;13.12;64.16;101321.06;458379;115;922700;-73
2022/09/09 02:54:30;;;;;;;6.09;5.08;;;;;;;13.10;64.34;101328.64;458322;115;924173;-73
2022/09/09 02:55:42;;;;;;;6.21;5.13;;;;;;;13.08;64.16;101329.89;464283;111;923189;-73
2022/09/09 02:56:50;;;;;;;7.21;6.08;;;;;;;13.02;64.06;101337.05;475761;111;922478;-73
2022/09/09 02:57:56;;;;;;;6.68;6.18;;;;;;;12.98;64.09;101340.44;475818;111;922521;-73
2022/09/09 02:58:59;;;;;;;7.18;6.57;;;;;;;12.92;64.24;101334.76;469124;111;922835;-73
2022/09/09 03:00:03;;;;;;;6.89;6.03;;;;;;;12.88;64.19;101341.72;466945;113;922592;-73
2022/09/09 03:01:08;;;;;;;6.26;5.73;;;;;;;12.86;64.27;101337.49;460031;115;922779;-73
2022/09/09 03:02:12;;;;;;;6.48;5.89;;;;;;;12.84;64.36;101334.99;460365;113;922746;-72
2022/09/09 03:03:17;;;;;;;6.24;5.69;;;;;;;12.85;64.45;101330.33;466873;113;922495;-72
2022/09/09 03:04:21;;;;;;;6.15;5.62;;;;;;;12.86;64.65;101332.86;466753;111;922437;-72
2022/09/09 03:05:26;;;;;;;6.38;5.78;;;;;;;12.88;64.72;101338.98;460046;115;930650;-73
2022/09/09 03:06:29;;;;;;;7.23;6.24;;;;;;;12.88;64.65;101330.77;457473;113;922550;-72
2022/09/09 03:07:34;;;;;;;7.66;5.91;;;;;;;12.90;64.74;101336.85;466250;113;925629;-72
2022/09/09 03:08:37;;;;;;;7.26;6.27;;;;;;;12.91;64.70;101335.80;466864;113;922926;-73
2022/09/09 03:09:41;;;;;;;7.25;6.28;;;;;;;12.91;64.50;101343.17;466918;113;930518;-73
2022/09/09 03:10:45;;;;;;;6.71;6.09;;;;;;;12.88;64.46;101344.45;466896;113;922531;-72
2022/09/09 03:11:49;;;;;;;7.15;6.15;;;;;;;12.87;64.47;101339.18;466836;113;922517;-72
2022/09/09 03:12:52;;;;;;;6.53;5.91;;;;;;;12.83;64.42;101352.45;466802;113;930465;-73
2022/09/09 03:13:56;;;;;;;5.76;5.36;;;;;;;12.81;64.39;101345.50;466992;111;922723;-72
2022/09/09 03:14:59;;;;;;;6.29;5.76;;;;;;;12.78;64.44;101340.46;466952;113;922626;-73
2022/09/09 03:16:03;;;;;;;6.38;5.87;;;;;;;12.76;64.52;101348.87;466931;113;922557;-72
2022/09/09 03:17:09;;;;;;;6.38;5.84;;;;;;;12.75;64.60;101349.07;461378;115;923200;-72
2022/09/09 03:18:13;;;;;;;6.54;5.97;;;;;;;12.75;64.68;101354.55;461709;113;923105;-71
2022/09/09 03:19:16;;;;;;;6.16;5.58;;;;;;;12.77;64.72;101350.56;466952;113;922525;-72
2022/09/09 03:20:20;;;;;;;8.03;6.33;;;;;;;12.78;64.68;101351.41;466867;113;922941;-72
2022/09/09 03:21:24;;;;;;;6.17;5.69;;;;;;;12.79;64.70;101351.17;466930;113;922524;-72
2022/09/09 03:22:27;;;;;;;5.79;5.32;;;;;;;12.80;64.65;101352.02;466823;113;922503;-72
2022/09/09 03:23:31;;;;;;;6.83;6.22;;;;;;;12.81;64.68;101353.70;466862;113;922518;-72
2022/09/09 03:24:35;;;;;;;7.04;6.44;;;;;;;12.82;64.68;101348.03;466738;113;923245;-73
2022/09/09 03:25:39;;;;;;;6.74;6.23;;;;;;;12.85;64.64;101352.22;466859;113;922575;-72
2022/09/09 03:26:44;;;;;;;6.91;6.40;;;;;;;12.85;64.60;101349.48;466803;113;922610;-73
2022/09/09 03:27:48;;;;;;;7.07;6.43;;;;;;;12.84;64.53;101350.56;466736;113;923251;-72
2022/09/09 03:28:52;;;;;;;5.83;5.44;;;;;;;12.82;64.54;101350.77;461383;115;922600;-72
2022/09/09 03:29:56;;;;;;;6.89;6.34;;;;;;;12.82;64.55;101358.98;459411;114;930598;-72
2022/09/09 03:31:04;;;;;;;6.92;6.29;;;;;;;12.81;64.47;101360.02;464651;113;923051;-72
2022/09/09 03:32:10;;;;;;;9.68;5.76;;;;;;;12.79;64.54;101364.86;466509;113;923024;-72
2022/09/09 03:33:14;;;;;;;7.47;6.76;;;;;;;12.80;64.37;101366.55;466698;113;922756;-71
2022/09/09 03:34:17;;;;;;;6.99;6.35;;;;;;;12.79;64.36;101369.52;460768;111;930595;-73
2022/09/09 03:35:21;;;;;;;6.54;5.94;;;;;;;12.76;64.37;101362.55;447711;118;923061;-72
2022/09/09 03:36:28;;;;;;;7.89;5.92;;;;;;;12.74;64.34;101370.12;448200;115;922667;-72
2022/09/09 03:37:31;;;;;;;6.68;6.11;;;;;;;12.73;64.31;101382.14;458403;115;922934;-72
2022/09/09 03:38:34;;;;;;;7.06;6.56;;;;;;;12.71;64.31;101372.45;458577;115;922937;-73
2022/09/09 03:39:38;;;;;;;6.64;5.97;;;;;;;12.69;64.40;101375.38;458616;113;922465;-73
2022/09/09 03:40:49;;;;;;;7.52;6.24;;;;;;;12.69;64.42;101372.64;458789;115;922968;-72
2022/09/09 03:41:53;;;;;;;6.51;5.97;;;;;;;12.70;64.42;101370.75;458566;115;923099;-72
2022/09/09 03:42:56;;;;;;;7.26;6.62;;;;;;;12.70;64.42;101376.23;447665;118;922770;-73
2022/09/09 03:44:00;;;;;;;7.09;6.09;;;;;;;12.71;64.45;101373.29;448295;115;923105;-73
2022/09/09 03:45:07;;;;;;;6.77;6.06;;;;;;;12.73;64.50;101370.35;458690;115;922572;-72
2022/09/09 03:46:10;;;;;;;6.67;6.11;;;;;;;12.75;64.53;101374.55;447616;118;923153;-72
2022/09/09 03:47:14;;;;;;;6.64;6.14;;;;;;;12.77;64.50;101366.98;448145;115;922635;-73
2022/09/09 03:48:18;;;;;;;6.36;5.79;;;;;;;12.79;64.50;101373.06;458629;115;922873;-72
2022/09/09 03:49:23;;;;;;;6.56;6.03;;;;;;;12.82;64.56;101374.55;458506;113;930519;-72
2022/09/09 03:50:27;;;;;;;6.45;5.99;;;;;;;12.83;64.51;101371.61;458570;115;922645;-73
2022/09/09 03:51:30;;;;;;;6.89;6.21;;;;;;;12.86;64.52;101382.13;458612;115;922986;-73
2022/09/09 03:52:35;;;;;;;6.63;6.15;;;;;;;12.87;64.53;101369.29;458690;115;923207;-73
2022/09/09 03:53:38;;;;;;;7.26;6.56;;;;;;;12.90;64.57;101374.36;458520;115;923126;-73
2022/09/09 03:54:42;;;;;;;6.84;6.29;;;;;;;12.90;64.59;101360.67;449765;117;922626;-72
2022/09/09 03:55:52;;;;;;;6.66;6.14;;;;;;;12.92;64.62;101373.08;447486;116;930576;-72
2022/09/09 03:56:55;;;;;;;6.34;5.73;;;;;;;12.93;64.62;101377.50;463275;114;923106;-73
2022/09/09 03:58:00;;;;;;;6.74;6.14;;;;;;;12.94;64.65;101373.72;458732;115;922662;-73
2022/09/09 03:59:03;;;;;;;7.28;6.54;;;;;;;12.95;64.65;101369.94;465122;113;922453;-71
2022/09/09 04:00:08;;;;;;;7.24;6.55;;;;;;;12.98;64.65;101373.28;466729;113;930516;-72
2022/09/09 04:01:20;;;;;;;7.45;6.31;;;;;;;12.98;64.62;101382.34;466653;113;923090;-72
2022/09/09 04:02:24;;;;;;;6.96;6.42;;;;;;;13.00;64.83;101380.25;466780;113;922947;-72
2022/09/09 04:03:27;;;;;;;7.49;6.57;;;;;;;13.00;64.83;101380.25;466809;113;922656;-72
2022/09/09 04:04:32;;;;;;;8.51;6.24;;;;;;;13.01;64.63;101390.13;466717;111;930988;-72
2022/09/09 04:05:39;;;;;;;7.18;6.44;;;;;;;13.02;64.63;101377.27;466765;113;922545;-72
2022/09/09 04:06:40;;;;;;;7.98;6.86;;;;;;;13.03;64.60;101381.70;466621;113;923141;-72
2022/09/09 04:07:43;;;;;;;6.17;5.67;;;;;;;13.02;64.59;101378.12;466833;113;922609;-72
2022/09/09 04:08:48;;;;;;;8.33;6.20;;;;;;;13.03;64.55;101377.08;466853;113;922599;-72
2022/09/09 04:09:51;;;;;;;6.49;5.83;;;;;;;13.04;64.48;101384.23;466678;113;922777;-72
2022/09/09 04:10:57;;;;;;;6.45;5.81;;;;;;;13.06;64.41;101381.30;466723;113;922918;-71
2022/09/09 04:11:59;;;;;;;6.83;6.08;;;;;;;13.06;64.31;101384.03;466665;113;923911;-72
2022/09/09 04:13:04;;;;;;;6.37;5.78;;;;;;;13.07;64.24;101377.48;466849;113;922992;-72
2022/09/09 04:14:07;;;;;;;6.76;5.92;;;;;;;13.07;64.20;101380.22;466672;111;922507;-72
2022/09/09 04:15:10;;;;;;;7.72;6.08;;;;;;;13.09;64.10;101383.59;466849;113;922536;-72
2022/09/09 04:16:14;;;;;;;9.05;6.28;;;;;;;13.10;64.08;101390.77;466689;113;922497;-72
2022/09/09 04:17:18;;;;;;;9.18;6.54;;;;;;;13.09;64.05;101383.59;461326;115;922613;-73
2022/09/09 04:18:22;;;;;;;8.23;6.77;;;;;;;13.08;63.92;101390.97;461662;113;922704;-72
2022/09/09 04:19:25;;;;;;;7.35;6.44;;;;;;;13.08;63.87;101384.64;466674;113;922532;-73
2022/09/09 04:20:30;;;;;;;7.62;6.38;;;;;;;13.09;63.89;101391.81;466700;113;922928;-71
2022/09/09 04:21:33;;;;;;;7.56;6.96;;;;;;;13.09;63.80;101394.55;466721;113;922496;-72
2022/09/09 04:22:38;;;;;;;7.02;6.44;;;;;;;13.10;63.80;101404.45;466614;113;922535;-72
2022/09/09 04:23:42;;;;;;;7.52;6.78;;;;;;;13.10;63.77;101404.45;466607;113;922533;-71
2022/09/09 04:24:45;;;;;;;7.71;6.99;;;;;;;13.10;63.80;101407.19;466833;113;922831;-72
2022/09/09 04:25:52;;;;;;;7.53;6.40;;;;;;;13.12;63.78;101407.87;466618;113;922832;-72
2022/09/09 04:26:55;;;;;;;10.11;7.02;;;;;;;13.11;63.72;101406.99;466613;113;922345;-72
2022/09/09 04:27:58;;;;;;;6.44;5.91;;;;;;;13.12;63.69;101399.66;466856;113;922570;-72
2022/09/09 04:29:03;;;;;;;6.71;6.12;;;;;;;13.10;63.68;101410.78;466772;113;922962;-72
2022/09/09 04:30:07;;;;;;;6.76;6.21;;;;;;;13.11;63.71;101411.62;464143;113;922461;-72
2022/09/09 04:31:19;;;;;;;8.21;6.94;;;;;;;13.11;63.71;101417.09;456535;115;923183;-72
2022/09/09 04:32:26;;;;;;;7.62;6.98;;;;;;;13.10;63.71;101408.04;459623;115;922627;-72
2022/09/09 04:33:28;;;;;;;7.70;6.78;;;;;;;13.09;63.77;101419.19;458559;115;922943;-72
2022/09/09 04:34:32;;;;;;;7.24;6.67;;;;;;;13.08;63.85;101417.50;475469;111;922458;-72
2022/09/09 04:35:36;;;;;;;7.69;7.04;;;;;;;13.09;63.90;101410.98;475823;111;922455;-72
2022/09/09 04:36:40;;;;;;;7.67;6.90;;;;;;;13.10;63.96;101410.78;475850;111;923043;-73
2022/09/09 04:37:44;;;;;;;7.82;7.11;;;;;;;13.13;63.98;101415.00;475819;111;922872;-72
2022/09/09 04:38:48;;;;;;;8.00;7.42;;;;;;;13.14;64.02;101408.48;475751;111;922590;-71
2022/09/09 04:39:52;;;;;;;9.59;7.51;;;;;;;13.17;64.04;101417.13;475831;111;923239;-73
2022/09/09 04:40:55;;;;;;;7.35;6.71;;;;;;;13.18;64.09;101401.52;475919;111;923024;-72
2022/09/09 04:41:59;;;;;;;8.68;7.01;;;;;;;13.22;64.08;101413.75;475790;111;922983;-72
2022/09/09 04:43:04;;;;;;;6.53;5.92;;;;;;;13.24;64.08;101406.15;475886;111;922456;-72
2022/09/09 04:44:07;;;;;;;7.22;6.53;;;;;;;13.26;64.11;101406.79;464315;114;923085;-72
2022/09/09 04:45:11;;;;;;;6.91;6.41;;;;;;;13.28;64.07;101408.28;456795;113;922994;-73
2022/09/09 04:46:16;;;;;;;8.14;7.27;;;;;;;13.31;64.06;101413.31;467163;111;922579;-74
2022/09/09 04:47:19;;;;;;;7.66;6.82;;;;;;;13.33;64.12;101411.22;475716;111;922634;-72
2022/09/09 04:48:24;;;;;;;8.88;6.39;;;;;;;13.35;64.06;101402.77;475912;111;922497;-72
2022/09/09 04:49:27;;;;;;;6.85;6.32;;;;;;;13.39;64.04;101404.05;475735;111;923133;-72
2022/09/09 04:50:31;;;;;;;6.36;5.74;;;;;;;13.41;64.12;101401.91;475736;111;930453;-71
2022/09/09 04:51:34;;;;;;;6.26;5.76;;;;;;;13.44;63.99;101403.40;475765;111;930553;-72
2022/09/09 04:52:38;;;;;;;5.98;5.50;;;;;;;13.47;63.94;101409.28;475884;111;922526;-73
2022/09/09 04:53:41;;;;;;;5.76;5.29;;;;;;;13.49;63.99;101398.97;475898;111;922506;-72
2022/09/09 04:54:45;;;;;;;5.30;4.88;;;;;;;13.52;63.84;101404.00;475919;111;922564;-72
2022/09/09 04:55:49;;;;;;;7.23;5.11;;;;;;;13.54;63.78;101401.05;475832;111;923271;-72
2022/09/09 04:56:52;;;;;;;5.64;5.02;;;;;;;13.57;63.70;101406.94;475724;111;922469;-72
2022/09/09 04:57:55;;;;;;;5.45;5.01;;;;;;;13.60;63.63;101401.05;475853;111;922767;-73
2022/09/09 04:58:58;;;;;;;5.27;4.78;;;;;;;13.63;63.58;101402.50;471986;111;923218;-72
2022/09/09 05:00:10;;;;;;;5.89;5.29;;;;;;;13.66;63.46;101402.93;470850;111;922819;-72
2022/09/09 05:01:21;;;;;;;8.89;5.63;;;;;;;13.68;63.43;101397.21;470710;112;922516;-72
2022/09/09 05:02:26;;;;;;;6.16;5.59;;;;;;;13.70;63.38;101406.07;470677;112;922625;-73
2022/09/09 05:03:30;;;;;;;6.93;5.30;;;;;;;13.72;63.30;101399.33;470215;112;922573;-72
2022/09/09 05:04:34;;;;;;;5.94;5.35;;;;;;;13.73;63.26;101405.63;470705;112;922671;-73
2022/09/09 05:05:37;;;;;;;5.91;5.39;;;;;;;13.74;63.31;101399.94;475639;111;922562;-73
2022/09/09 05:06:42;;;;;;;5.79;5.27;;;;;;;13.76;63.20;101405.22;475444;111;922553;-72
2022/09/09 05:07:47;;;;;;;5.03;4.63;;;;;;;13.78;63.15;101406.66;475580;111;922590;-73
2022/09/09 05:08:51;;;;;;;5.69;5.06;;;;;;;13.81;63.15;101410.04;475362;111;923512;-73
2022/09/09 05:09:56;;;;;;;5.64;5.14;;;;;;;13.83;63.22;101405.20;470648;111;923000;-74
2022/09/09 05:11:00;;;;;;;4.87;4.45;;;;;;;13.85;63.03;101417.61;475685;111;923381;-73
2022/09/09 05:12:04;;;;;;;5.30;4.34;;;;;;;13.86;62.96;101408.34;467123;113;923042;-73